Time;durP1;ratioP1;P1;durP2;ratioP2;P2;SDS_P1;SDS_P2;PMS_P1;PMS_P2;Temp;Humidity;BMP_temperature;BMP_pressure;BME280_temperature;BME280_humidity;BME280_pressure;Samples;Min_cycle;Max_cycle;Signal;HPM_P1;HPM_P2
2021/12/18 00:00:28;;;;;;;34.03;19.37;;;1.80;99.90;;;;;;4968576;28;20057;-81
2021/12/18 00:02:53;;;;;;;35.47;20.97;;;1.90;99.90;;;;;;4967670;28;20065;-81
2021/12/18 00:05:19;;;;;;;32.50;20.00;;;1.80;99.90;;;;;;4967592;28;20435;-80
2021/12/18 00:07:45;;;;;;;36.27;20.40;;;1.80;99.90;;;;;;5034535;28;20379;-80
2021/12/18 00:10:10;;;;;;;35.57;20.43;;;1.70;99.90;;;;;;4968386;28;20086;-80
2021/12/18 00:12:36;;;;;;;30.93;19.13;;;1.90;99.90;;;;;;4967745;28;20038;-80
2021/12/18 00:15:02;;;;;;;30.43;18.17;;;1.90;99.90;;;;;;4967509;28;20715;-80
2021/12/18 00:17:27;;;;;;;35.57;20.13;;;1.80;99.90;;;;;;4968164;28;20088;-80
2021/12/18 00:19:53;;;;;;;32.07;18.63;;;1.80;99.90;;;;;;4968095;28;20066;-80
2021/12/18 00:22:18;;;;;;;30.73;19.63;;;1.90;99.90;;;;;;4967981;28;20035;-80
2021/12/18 00:24:44;;;;;;;35.27;20.20;;;2.10;99.90;;;;;;4968234;28;20034;-80
2021/12/18 00:27:09;;;;;;;42.67;24.53;;;2.20;99.90;;;;;;4968780;28;20037;-80
2021/12/18 00:29:35;;;;;;;37.83;21.77;;;2.10;99.90;;;;;;4971576;28;20061;-80
2021/12/18 00:32:00;;;;;;;32.93;17.60;;;2.10;99.90;;;;;;4971172;28;20027;-80
2021/12/18 00:34:26;;;;;;;44.03;26.13;;;2.20;99.90;;;;;;5038287;28;20072;-80
2021/12/18 00:36:52;;;;;;;43.60;25.27;;;2.20;99.90;;;;;;5037905;28;20031;-80
2021/12/18 00:39:17;;;;;;;40.93;23.53;;;2.10;99.90;;;;;;4971112;28;20106;-80
2021/12/18 00:44:12;;;;;;;33.23;19.00;;;1.90;99.90;;;;;;4971389;28;20031;-80
2021/12/18 00:46:42;;;;;;;35.60;21.20;;;1.80;99.90;;;;;;5038117;28;20019;-80
2021/12/18 00:49:11;;;;;;;36.53;19.83;;;1.90;99.90;;;;;;4971284;28;20023;-80
2021/12/18 00:51:37;;;;;;;36.97;20.63;;;1.80;99.90;;;;;;4970260;28;20042;-80
2021/12/18 00:54:03;;;;;;;35.83;19.97;;;1.90;99.90;;;;;;4970103;28;20440;-80
2021/12/18 00:56:28;;;;;;;36.43;19.97;;;1.90;99.90;;;;;;4969013;28;20038;-80
2021/12/18 00:58:54;;;;;;;35.47;20.30;;;1.90;99.90;;;;;;4970852;28;20019;-80
2021/12/18 01:01:21;;;;;;;41.87;21.70;;;1.80;99.90;;;;;;4970698;28;20023;-80
2021/12/18 01:03:49;;;;;;;40.57;19.87;;;1.80;99.90;;;;;;4970662;28;20046;-80
2021/12/18 01:06:17;;;;;;;37.13;20.83;;;1.80;99.90;;;;;;4970838;28;20053;-80
2021/12/18 01:08:42;;;;;;;36.00;20.97;;;1.90;99.90;;;;;;4971017;28;20047;-80
2021/12/18 01:14:42;;;;;;;41.90;22.17;;;1.90;99.90;;;;;;4970638;28;20131;-80
2021/12/18 01:16:53;;;;;;;40.80;21.63;;;1.90;99.90;;;;;;4977456;28;20499;-80
2021/12/18 01:24:28;;;;;;;39.57;22.43;;;1.60;99.90;;;;;;4970570;28;20181;-80
2021/12/18 01:26:54;;;;;;;38.37;21.53;;;1.60;99.90;;;;;;4970490;28;20420;-80
2021/12/18 01:29:19;;;;;;;42.03;22.07;;;1.60;99.90;;;;;;5037487;28;20122;-80
2021/12/18 01:31:45;;;;;;;46.47;25.80;;;1.80;99.90;;;;;;4970341;28;20494;-80
2021/12/18 01:34:10;;;;;;;43.10;22.40;;;1.80;99.90;;;;;;4970396;28;20413;-80
2021/12/18 01:36:36;;;;;;;46.10;25.20;;;1.90;99.90;;;;;;4970536;28;20065;-80
2021/12/18 01:39:03;;;;;;;46.83;24.13;;;1.80;99.90;;;;;;4969503;28;20039;-80
2021/12/18 01:41:37;;;;;;;42.97;23.37;;;1.70;99.90;;;;;;4970429;28;20023;-80
2021/12/18 01:44:36;;;;;;;45.63;23.37;;;1.50;99.90;;;;;;4970057;28;20033;-80
2021/12/18 01:52:32;;;;;;;49.97;25.30;;;1.30;99.90;;;;;;4969807;28;20083;-80
2021/12/18 01:54:57;;;;;;;50.23;25.97;;;1.30;99.90;;;;;;5036621;28;20031;-80
2021/12/18 01:57:23;;;;;;;43.83;23.83;;;1.30;99.90;;;;;;4969829;28;20125;-80
2021/12/18 01:59:49;;;;;;;45.67;23.90;;;1.30;99.90;;;;;;4969863;28;20022;-80
2021/12/18 02:02:15;;;;;;;42.27;23.20;;;1.30;99.90;;;;;;4969754;28;20124;-80
2021/12/18 02:04:41;;;;;;;42.20;23.33;;;1.40;99.90;;;;;;4969947;28;20035;-80
2021/12/18 02:07:07;;;;;;;51.70;23.97;;;1.50;99.90;;;;;;4969862;28;20073;-80
2021/12/18 02:12:20;;;;;;;51.78;26.83;;;1.20;99.90;;;;;;4969997;28;20117;-80
2021/12/18 02:20:37;;;;;;;54.97;26.73;;;1.00;99.90;;;;;;4969606;28;20037;-80
2021/12/18 02:23:04;;;;;;;60.97;27.00;;;1.00;99.90;;;;;;4969735;28;20486;-80
2021/12/18 02:25:32;;;;;;;60.00;28.47;;;1.00;99.90;;;;;;4969706;28;20019;-80
2021/12/18 02:27:58;;;;;;;55.90;26.27;;;1.00;99.90;;;;;;4969423;28;20103;-80
2021/12/18 02:30:24;;;;;;;45.90;24.53;;;1.00;99.90;;;;;;4969846;28;20094;-80
2021/12/18 02:32:52;;;;;;;48.60;23.63;;;1.30;99.90;;;;;;5036236;28;20050;-80
2021/12/18 02:35:29;;;;;;;50.13;25.40;;;1.40;99.90;;;;;;5036193;28;20114;-80
2021/12/18 02:38:12;;;;;;;55.87;26.87;;;1.30;99.90;;;;;;4969439;28;20035;-80
2021/12/18 02:43:13;;;;;;;49.63;26.47;;;1.20;99.90;;;;;;4969453;28;20031;-80
2021/12/18 02:45:39;;;;;;;52.30;25.27;;;1.20;99.90;;;;;;4969510;28;20023;-80
2021/12/18 02:48:05;;;;;;;50.77;25.27;;;1.30;99.90;;;;;;4969245;28;20092;-80
2021/12/18 02:50:31;;;;;;;43.53;23.27;;;1.30;99.90;;;;;;4969121;28;20023;-80
2021/12/18 02:52:56;;;;;;;52.87;25.60;;;1.20;99.90;;;;;;4969401;28;20076;-80
2021/12/18 02:55:22;;;;;;;44.73;23.37;;;1.20;99.90;;;;;;4969181;28;20085;-80
2021/12/18 02:57:47;;;;;;;44.27;24.17;;;1.20;99.90;;;;;;4969082;28;20042;-80
2021/12/18 03:00:13;;;;;;;41.43;22.20;;;1.20;99.90;;;;;;4969379;28;20038;-80
2021/12/18 03:02:42;;;;;;;48.20;24.00;;;1.20;99.90;;;;;;4969179;28;20084;-80
2021/12/18 03:05:11;;;;;;;45.20;22.27;;;1.40;99.90;;;;;;4969467;28;20019;-80
2021/12/18 03:07:37;;;;;;;46.23;24.10;;;1.30;99.90;;;;;;4969258;28;20471;-80
2021/12/18 03:26:03;;;;;;;42.00;21.90;;;1.30;99.90;;;;;;4969454;28;20030;-80
2021/12/18 03:28:29;;;;;;;43.03;21.93;;;1.20;99.90;;;;;;4962073;28;20039;-81
2021/12/18 03:30:55;;;;;;;42.43;21.43;;;1.10;99.90;;;;;;5018146;28;20077;-80
2021/12/18 03:33:22;;;;;;;41.63;22.33;;;1.00;99.90;;;;;;4949652;28;20035;-80
2021/12/18 03:35:48;;;;;;;45.53;22.33;;;1.00;99.90;;;;;;4965103;28;20039;-80
2021/12/18 03:38:14;;;;;;;46.47;22.30;;;1.00;99.90;;;;;;4968636;28;20023;-80
2021/12/18 03:40:40;;;;;;;45.77;21.20;;;1.00;99.90;;;;;;4968997;28;20117;-80
2021/12/18 03:43:06;;;;;;;41.33;20.60;;;0.90;99.90;;;;;;4968609;28;20074;-81
2021/12/18 03:45:32;;;;;;;45.37;22.07;;;1.00;99.90;;;;;;4968415;28;20479;-80
2021/12/18 03:47:57;;;;;;;48.97;22.73;;;1.10;99.90;;;;;;4968424;28;20030;-80
2021/12/18 03:50:23;;;;;;;41.23;20.67;;;1.20;99.90;;;;;;5035491;28;20019;-80
2021/12/18 03:52:49;;;;;;;40.30;21.07;;;1.10;99.90;;;;;;4968486;28;20620;-80
2021/12/18 03:55:16;;;;;;;49.43;22.97;;;1.10;99.90;;;;;;4968798;28;20116;-80
2021/12/18 03:57:42;;;;;;;38.43;20.43;;;1.20;99.90;;;;;;4968424;28;20031;-80
2021/12/18 04:00:11;;;;;;;42.57;20.50;;;1.10;99.90;;;;;;4968572;28;20048;-80
2021/12/18 04:02:36;;;;;;;36.00;18.40;;;1.10;99.90;;;;;;4970194;28;20031;-80
2021/12/18 04:05:03;;;;;;;36.50;18.73;;;1.10;99.90;;;;;;5038997;28;20029;-80
2021/12/18 04:07:28;;;;;;;42.33;19.13;;;1.30;99.90;;;;;;4971968;28;20023;-80
2021/12/18 04:09:54;;;;;;;37.53;18.57;;;1.20;99.90;;;;;;4971736;28;20541;-80
2021/12/18 04:12:19;;;;;;;36.27;19.23;;;1.00;99.90;;;;;;4971731;28;20023;-80
2021/12/18 04:14:45;;;;;;;43.87;20.53;;;1.00;99.90;;;;;;4971214;28;20476;-80
2021/12/18 04:17:11;;;;;;;49.20;21.23;;;0.90;99.90;;;;;;4971349;28;20077;-80
2021/12/18 04:19:37;;;;;;;51.83;21.83;;;0.90;99.90;;;;;;4971643;28;20031;-80
2021/12/18 04:22:03;;;;;;;47.93;22.77;;;0.80;99.90;;;;;;4971360;28;20050;-80
2021/12/18 04:24:28;;;;;;;43.63;22.53;;;0.80;99.90;;;;;;4971644;28;20035;-80
2021/12/18 04:26:54;;;;;;;48.27;22.23;;;0.80;99.90;;;;;;4971329;28;20057;-80
2021/12/18 04:29:20;;;;;;;43.50;20.67;;;1.00;99.90;;;;;;4971281;28;20075;-80
2021/12/18 04:31:45;;;;;;;44.67;20.97;;;1.00;99.90;;;;;;4970570;28;20031;-80
2021/12/18 04:34:11;;;;;;;39.90;20.83;;;1.30;99.90;;;;;;5038448;28;20027;-80
2021/12/18 04:36:36;;;;;;;46.30;22.33;;;1.20;99.90;;;;;;4971265;28;20102;-80
2021/12/18 04:39:03;;;;;;;48.00;22.93;;;1.20;99.90;;;;;;4971315;28;20027;-80
2021/12/18 04:41:48;;;;;;;44.70;21.20;;;1.10;99.90;;;;;;5038409;28;20460;-80
2021/12/18 04:44:13;;;;;;;47.40;22.87;;;1.30;99.90;;;;;;4971534;28;20101;-80
2021/12/18 04:46:39;;;;;;;46.77;23.90;;;1.20;99.90;;;;;;4971027;28;20027;-80
2021/12/18 04:49:04;;;;;;;51.03;24.13;;;1.20;99.90;;;;;;4971197;28;20031;-80
2021/12/18 04:51:30;;;;;;;52.50;22.23;;;1.30;99.90;;;;;;4971224;28;20057;-80
2021/12/18 04:53:56;;;;;;;47.27;22.63;;;1.20;99.90;;;;;;4971308;28;20027;-80
2021/12/18 04:56:21;;;;;;;55.30;25.27;;;1.20;99.90;;;;;;4971002;28;20039;-80
2021/12/18 04:58:47;;;;;;;45.50;22.57;;;1.40;99.90;;;;;;4971174;28;20081;-80
2021/12/18 05:01:12;;;;;;;47.10;23.00;;;1.50;99.90;;;;;;4970607;28;20494;-80
2021/12/18 05:03:40;;;;;;;50.97;23.13;;;1.60;99.90;;;;;;4970945;28;20074;-80
2021/12/18 05:06:05;;;;;;;53.03;24.30;;;1.50;99.90;;;;;;5037764;28;20019;-80
2021/12/18 05:08:31;;;;;;;53.67;24.07;;;1.30;99.90;;;;;;4970790;28;20031;-80
2021/12/18 05:10:57;;;;;;;42.73;20.30;;;1.30;99.90;;;;;;5037505;28;20360;-80
2021/12/18 05:13:22;;;;;;;51.60;20.33;;;1.40;99.90;;;;;;4969244;28;20084;-80
2021/12/18 05:15:48;;;;;;;45.63;21.70;;;1.40;99.90;;;;;;4970626;28;20090;-80
2021/12/18 05:18:14;;;;;;;46.50;21.57;;;1.30;99.90;;;;;;4970436;28;20035;-80
2021/12/18 05:20:39;;;;;;;47.20;21.13;;;1.30;99.90;;;;;;4970733;28;20073;-80
2021/12/18 05:23:05;;;;;;;45.60;20.77;;;1.20;99.90;;;;;;4970399;28;20039;-80
2021/12/18 05:25:30;;;;;;;45.10;19.87;;;1.20;99.90;;;;;;4970788;28;20157;-80
2021/12/18 05:27:56;;;;;;;48.77;21.47;;;1.20;99.90;;;;;;4970531;28;20050;-80
2021/12/18 05:30:22;;;;;;;47.07;22.37;;;1.30;99.90;;;;;;4970513;28;20029;-80
2021/12/18 05:32:47;;;;;;;47.73;22.07;;;1.20;99.90;;;;;;4970109;28;20391;-80
2021/12/18 05:35:16;;;;;;;58.63;21.93;;;1.20;99.90;;;;;;4970672;28;20026;-80
2021/12/18 05:37:51;;;;;;;133.10;54.10;;;1.00;99.90;;;;;;4970675;28;20100;-80
2021/12/18 05:40:23;;;;;;;76.07;31.58;;;1.00;99.90;;;;;;4970518;28;20433;-80
2021/12/18 05:42:50;;;;;;;56.97;24.43;;;0.90;99.90;;;;;;5037359;28;20476;-80
2021/12/18 05:45:17;;;;;;;52.77;22.70;;;0.90;99.90;;;;;;4970147;28;20412;-80
2021/12/18 05:47:45;;;;;;;59.07;28.17;;;0.90;99.90;;;;;;4980773;28;20048;-80
2021/12/18 05:50:16;;;;;;;49.47;22.13;;;0.90;99.90;;;;;;4967355;28;20027;-80
2021/12/18 05:52:44;;;;;;;55.27;23.83;;;0.90;99.90;;;;;;4969522;28;20142;-80
2021/12/18 05:55:10;;;;;;;53.20;23.40;;;0.90;99.90;;;;;;4959170;28;20094;-80
2021/12/18 05:57:36;;;;;;;48.27;20.40;;;0.90;99.90;;;;;;4967632;28;20114;-80
2021/12/18 06:00:05;;;;;;;55.77;23.50;;;0.80;99.90;;;;;;4968859;28;20023;-80
2021/12/18 06:02:31;;;;;;;51.77;21.63;;;0.80;99.90;;;;;;4969485;28;20026;-80
2021/12/18 06:04:56;;;;;;;52.23;22.93;;;0.80;99.90;;;;;;4969532;28;20023;-80
2021/12/18 06:10:17;;;;;;;47.50;23.27;;;0.80;99.90;;;;;;4977574;28;20031;-81
2021/12/18 06:12:43;;;;;;;45.93;21.83;;;0.90;99.90;;;;;;4969165;28;20081;-80
2021/12/18 06:15:09;;;;;;;50.53;22.53;;;1.00;99.90;;;;;;4969272;28;20385;-80
2021/12/18 06:17:34;;;;;;;62.73;27.93;;;1.00;99.90;;;;;;4969430;28;20042;-81
2021/12/18 06:20:00;;;;;;;41.20;20.27;;;1.00;99.90;;;;;;5035816;28;20046;-81
2021/12/18 06:22:25;;;;;;;40.53;19.80;;;1.00;99.90;;;;;;4969438;28;20106;-79
2021/12/18 06:24:51;;;;;;;42.43;19.00;;;1.20;99.90;;;;;;5035112;28;20122;-80
2021/12/18 06:27:16;;;;;;;38.63;18.70;;;1.20;99.90;;;;;;4968673;28;20081;-80
2021/12/18 06:29:42;;;;;;;40.23;18.80;;;1.20;99.90;;;;;;4968691;28;20101;-80
2021/12/18 06:32:08;;;;;;;47.57;19.53;;;1.30;99.90;;;;;;4968685;28;21145;-80
2021/12/18 06:34:34;;;;;;;45.23;20.60;;;1.20;99.90;;;;;;4968819;28;20047;-79
2021/12/18 06:36:59;;;;;;;45.97;20.57;;;1.30;99.90;;;;;;4969028;28;20027;-78
2021/12/18 06:39:25;;;;;;;58.20;24.87;;;1.20;99.90;;;;;;4969395;28;20106;-78
2021/12/18 06:41:50;;;;;;;47.70;20.10;;;1.10;99.90;;;;;;4969349;28;20055;-82
2021/12/18 06:44:16;;;;;;;48.53;21.50;;;1.00;99.90;;;;;;4970339;28;20069;-79
2021/12/18 06:46:42;;;;;;;46.90;18.97;;;0.90;99.90;;;;;;4970069;28;20118;-69
2021/12/18 06:49:09;;;;;;;49.23;20.23;;;0.90;99.90;;;;;;4969886;28;20023;-79
2021/12/18 06:51:35;;;;;;;47.53;18.07;;;0.90;99.90;;;;;;4968961;28;20096;-80
2021/12/18 06:54:01;;;;;;;43.70;18.53;;;0.80;99.90;;;;;;4969074;28;20430;-80
2021/12/18 06:56:26;;;;;;;47.03;20.23;;;0.80;99.90;;;;;;5035383;28;20031;-80
2021/12/18 06:58:52;;;;;;;54.63;20.97;;;0.70;99.90;;;;;;4968893;28;20114;-80
2021/12/18 07:01:17;;;;;;;46.20;20.13;;;0.70;99.90;;;;;;4968915;28;20376;-80
2021/12/18 07:03:43;;;;;;;45.30;19.23;;;0.80;99.90;;;;;;4968699;28;20042;-80
2021/12/18 07:06:08;;;;;;;33.53;16.10;;;0.80;99.90;;;;;;5035312;28;20027;-80
2021/12/18 07:08:34;;;;;;;35.83;17.53;;;1.00;99.90;;;;;;4968898;28;20034;-79
2021/12/18 07:10:59;;;;;;;36.53;17.13;;;1.10;99.90;;;;;;4968846;28;20026;-80
2021/12/18 07:13:27;;;;;;;35.13;15.80;;;1.00;99.90;;;;;;4968680;28;20031;-79
2021/12/18 07:15:53;;;;;;;35.97;16.03;;;1.00;99.90;;;;;;4968506;28;20131;-80
2021/12/18 07:18:19;;;;;;;30.53;14.87;;;0.90;99.90;;;;;;4968813;28;20128;-79
2021/12/18 07:20:45;;;;;;;30.13;14.80;;;1.00;99.90;;;;;;4968720;28;20030;-80
2021/12/18 07:23:10;;;;;;;28.03;14.13;;;1.00;99.90;;;;;;4968574;28;20468;-80
2021/12/18 07:25:36;;;;;;;27.40;13.37;;;1.00;99.90;;;;;;4978458;28;20095;-80
2021/12/18 07:28:02;;;;;;;30.10;14.70;;;1.00;99.90;;;;;;4966501;28;20035;-80
2021/12/18 07:30:27;;;;;;;33.20;15.83;;;1.00;99.90;;;;;;5033157;28;20502;-80
2021/12/18 07:32:53;;;;;;;31.43;15.70;;;0.90;99.90;;;;;;4965769;28;20075;-80
2021/12/18 07:35:19;;;;;;;28.63;14.00;;;1.00;99.90;;;;;;4965884;28;20026;-80
2021/12/18 07:37:44;;;;;;;26.80;13.27;;;1.10;99.90;;;;;;4967503;28;20136;-80
2021/12/18 07:40:11;;;;;;;26.30;12.90;;;1.10;99.90;;;;;;4969234;28;20504;-79
2021/12/18 07:42:37;;;;;;;27.07;13.80;;;1.10;99.90;;;;;;4969035;28;20035;-79
2021/12/18 07:45:04;;;;;;;30.60;14.57;;;1.20;99.90;;;;;;4969455;28;20039;-80
2021/12/18 07:47:29;;;;;;;33.10;15.00;;;1.20;99.90;;;;;;4968973;28;20030;-80
2021/12/18 07:49:55;;;;;;;35.77;16.60;;;1.10;99.90;;;;;;4968958;28;20031;-80
2021/12/18 07:52:21;;;;;;;37.40;17.87;;;1.10;99.90;;;;;;4968900;28;20023;-80
2021/12/18 07:54:47;;;;;;;33.20;16.67;;;1.10;99.90;;;;;;4968959;28;20084;-80
2021/12/18 07:57:13;;;;;;;31.23;14.90;;;1.00;99.90;;;;;;4968911;28;20480;-80
2021/12/18 07:59:39;;;;;;;35.83;17.20;;;1.00;99.90;;;;;;4968861;28;20030;-80
2021/12/18 08:02:07;;;;;;;37.03;16.83;;;0.90;99.90;;;;;;5050532;28;20039;-80
2021/12/18 08:04:34;;;;;;;37.40;17.70;;;0.90;99.90;;;;;;4988189;28;20030;-80
2021/12/18 08:07:00;;;;;;;35.80;16.60;;;0.90;99.90;;;;;;4992646;28;20567;-79
2021/12/18 08:09:26;;;;;;;34.07;16.43;;;0.90;99.90;;;;;;5055910;28;20026;-80
2021/12/18 08:11:52;;;;;;;32.30;16.33;;;0.90;99.90;;;;;;4951724;28;20031;-80
2021/12/18 08:14:18;;;;;;;29.33;15.17;;;1.10;99.90;;;;;;5015563;28;20042;-80
2021/12/18 08:16:44;;;;;;;31.33;15.83;;;1.20;99.90;;;;;;4948906;29;20389;-79
2021/12/18 08:19:09;;;;;;;29.87;15.10;;;1.20;99.90;;;;;;4949197;28;20043;-80
2021/12/18 08:21:35;;;;;;;35.07;17.17;;;1.30;99.90;;;;;;4978578;28;20033;-79
2021/12/18 08:24:00;;;;;;;32.07;15.70;;;1.20;99.90;;;;;;5070546;28;20024;-80
2021/12/18 08:26:26;;;;;;;32.23;15.90;;;1.20;99.90;;;;;;5070556;28;20029;-80
2021/12/18 08:28:51;;;;;;;35.47;18.03;;;1.20;99.90;;;;;;5070393;28;20142;-80
2021/12/18 08:31:17;;;;;;;30.93;16.57;;;1.10;99.90;;;;;;5070315;28;20025;-80
2021/12/18 08:33:43;;;;;;;33.73;16.40;;;1.00;99.90;;;;;;5070119;28;20035;-80
2021/12/18 08:36:09;;;;;;;30.20;16.13;;;1.00;99.90;;;;;;5052489;28;20067;-80
2021/12/18 08:38:34;;;;;;;36.30;18.93;;;1.20;99.90;;;;;;5070240;28;20075;-80
2021/12/18 08:41:00;;;;;;;38.20;18.57;;;1.20;99.90;;;;;;4986022;28;20039;-80
2021/12/18 08:43:26;;;;;;;40.23;20.40;;;1.30;99.90;;;;;;4948837;29;20503;-80
2021/12/18 08:45:51;;;;;;;34.87;17.00;;;1.40;99.90;;;;;;4948601;29;20034;-80
2021/12/18 08:48:17;;;;;;;30.13;16.17;;;1.30;99.90;;;;;;4948521;29;20034;-80
2021/12/18 08:50:43;;;;;;;29.87;15.87;;;1.30;99.90;;;;;;4949151;29;20134;-80
2021/12/18 08:53:08;;;;;;;35.63;16.87;;;1.40;99.90;;;;;;4948886;28;20045;-79
2021/12/18 08:55:34;;;;;;;34.33;18.03;;;1.40;99.90;;;;;;5063578;28;20034;-79
2021/12/18 08:58:00;;;;;;;32.07;17.33;;;1.40;99.90;;;;;;4987460;28;20042;-80
2021/12/18 09:00:26;;;;;;;28.67;15.23;;;1.50;99.90;;;;;;4987275;28;20033;-80
2021/12/18 09:02:54;;;;;;;30.73;16.90;;;1.50;99.90;;;;;;4956648;28;20134;-80
2021/12/18 09:05:21;;;;;;;30.73;16.37;;;1.60;99.90;;;;;;4948870;28;20088;-80
2021/12/18 09:07:47;;;;;;;34.93;17.73;;;1.70;99.90;;;;;;4948749;28;20034;-79
2021/12/18 09:10:14;;;;;;;32.70;16.87;;;1.60;99.90;;;;;;4948668;29;20023;-80
2021/12/18 09:12:39;;;;;;;35.43;17.47;;;1.60;99.90;;;;;;5014707;28;20435;-80
2021/12/18 09:15:08;;;;;;;41.70;19.40;;;1.50;99.90;;;;;;4948250;28;20027;-79
2021/12/18 09:17:34;;;;;;;39.60;21.47;;;1.30;99.90;;;;;;4948670;28;20084;-80
2021/12/18 09:19:59;;;;;;;38.00;18.93;;;1.30;99.90;;;;;;4948720;28;20118;-80
2021/12/18 09:22:25;;;;;;;40.00;19.23;;;1.30;99.90;;;;;;4948032;28;20696;-80
2021/12/18 09:24:51;;;;;;;39.53;19.50;;;1.20;99.90;;;;;;4948465;29;20027;-80
2021/12/18 09:27:17;;;;;;;40.10;20.10;;;1.20;99.90;;;;;;4948329;28;20523;-80
2021/12/18 09:29:44;;;;;;;43.53;19.20;;;1.20;99.90;;;;;;4948169;29;20487;-80
2021/12/18 09:32:09;;;;;;;39.53;20.20;;;1.20;99.90;;;;;;5014497;28;20491;-80
2021/12/18 09:34:35;;;;;;;44.30;28.43;;;1.10;99.90;;;;;;4948418;29;20039;-80
2021/12/18 09:37:04;;;;;;;34.90;18.77;;;1.20;99.90;;;;;;4948289;29;20062;-80
2021/12/18 09:39:30;;;;;;;31.10;19.67;;;1.20;99.90;;;;;;4948088;28;20031;-80
2021/12/18 09:41:55;;;;;;;33.03;18.13;;;1.30;99.90;;;;;;4947997;29;20037;-79
2021/12/18 09:44:26;;;;;;;33.43;17.97;;;1.20;99.90;;;;;;4947776;29;20114;-79
2021/12/18 09:46:52;;;;;;;34.87;18.93;;;1.20;99.90;;;;;;4948096;28;20472;-79
2021/12/18 09:49:19;;;;;;;33.60;18.37;;;1.20;99.90;;;;;;4947880;28;20035;-79
2021/12/18 09:51:44;;;;;;;33.63;16.23;;;1.20;99.90;;;;;;5014062;28;20427;-79
2021/12/18 09:54:10;;;;;;;26.50;14.53;;;1.20;99.90;;;;;;4947781;29;20031;-80
2021/12/18 09:56:36;;;;;;;34.73;20.30;;;1.20;99.90;;;;;;4947551;29;20073;-79
2021/12/18 09:59:02;;;;;;;35.63;16.10;;;1.30;99.90;;;;;;4947135;28;20042;-79
2021/12/18 10:01:28;;;;;;;33.77;15.77;;;1.40;99.90;;;;;;5013072;28;20084;-79
2021/12/18 10:03:58;;;;;;;31.10;15.83;;;1.50;99.90;;;;;;4947492;29;20035;-79
2021/12/18 10:06:39;;;;;;;28.77;14.53;;;1.40;99.90;;;;;;4947348;28;20027;-79
2021/12/18 10:09:18;;;;;;;27.97;15.80;;;1.30;99.90;;;;;;4947774;28;20102;-79
2021/12/18 10:11:56;;;;;;;27.67;14.80;;;1.30;99.90;;;;;;4947321;29;20079;-79
2021/12/18 10:14:38;;;;;;;31.67;15.80;;;1.30;99.90;;;;;;4947738;28;20031;-79
2021/12/18 10:17:18;;;;;;;24.63;14.03;;;1.40;99.90;;;;;;4946750;28;20150;-79
2021/12/18 10:19:43;;;;;;;27.90;15.20;;;1.40;99.90;;;;;;4946784;28;20031;-79
2021/12/18 10:22:11;;;;;;;30.73;16.03;;;1.30;99.90;;;;;;4946814;28;20085;-79
2021/12/18 10:24:39;;;;;;;25.13;14.00;;;1.30;99.90;;;;;;4947278;28;20049;-79
2021/12/18 10:27:20;;;;;;;27.67;14.67;;;1.30;99.90;;;;;;4947018;28;20426;-79
2021/12/18 10:29:47;;;;;;;26.73;15.57;;;1.20;99.90;;;;;;4947503;28;20785;-79
2021/12/18 10:32:17;;;;;;;27.17;14.90;;;1.20;99.90;;;;;;4947302;28;20054;-79
2021/12/18 10:34:49;;;;;;;28.03;15.53;;;1.20;99.90;;;;;;4947128;28;20062;-79
2021/12/18 10:37:22;;;;;;;30.07;16.70;;;1.20;99.90;;;;;;5012667;28;20098;-79
2021/12/18 10:39:50;;;;;;;27.20;15.83;;;1.20;99.90;;;;;;4947023;28;20114;-79
2021/12/18 10:42:21;;;;;;;29.37;14.93;;;1.30;99.90;;;;;;4946911;28;20073;-79
2021/12/18 10:45:03;;;;;;;25.83;14.83;;;1.50;99.90;;;;;;4947060;28;20027;-79
2021/12/18 10:47:42;;;;;;;26.03;14.83;;;1.70;99.90;;;;;;5012683;28;20031;-79
2021/12/18 10:50:35;;;;;;;33.60;19.63;;;1.90;99.90;;;;;;4947018;28;20133;-79
2021/12/18 10:53:04;;;;;;;33.60;17.83;;;1.80;99.90;;;;;;5029155;28;20450;-79
2021/12/18 10:55:34;;;;;;;31.73;15.90;;;1.70;99.90;;;;;;5029175;28;20035;-79
2021/12/18 10:58:02;;;;;;;30.33;18.20;;;1.80;99.90;;;;;;4946511;28;20035;-79
2021/12/18 11:00:37;;;;;;;33.37;21.50;;;1.80;99.90;;;;;;4946797;28;20081;-79
2021/12/18 11:03:16;;;;;;;;;;;1.80;99.90;;;;;;4947033;28;20037;-79
2021/12/18 11:05:42;;;;;;;27.30;14.33;;;1.90;99.90;;;;;;4946803;29;20013;-79
2021/12/18 11:08:10;;;;;;;29.07;18.00;;;1.80;99.90;;;;;;4946585;29;20130;-79
2021/12/18 11:11:05;;;;;;;25.00;14.27;;;1.80;99.90;;;;;;4946689;28;20041;-79
2021/12/18 11:13:41;;;;;;;24.77;14.73;;;1.60;99.90;;;;;;5012396;28;20042;-79
2021/12/18 11:16:06;;;;;;;30.63;16.07;;;1.50;99.90;;;;;;4946099;29;20047;-79
2021/12/18 11:18:33;;;;;;;28.63;15.73;;;1.50;99.90;;;;;;4945786;28;20031;-79
2021/12/18 11:20:59;;;;;;;28.23;15.47;;;1.40;99.90;;;;;;4945637;28;20023;-79
2021/12/18 11:23:36;;;;;;;31.57;16.70;;;1.30;99.90;;;;;;4945714;28;20035;-79
2021/12/18 11:26:02;;;;;;;33.97;17.77;;;1.40;99.90;;;;;;4957449;28;20038;-79
2021/12/18 11:28:30;;;;;;;29.80;16.13;;;1.40;99.90;;;;;;4964637;28;20030;-79
2021/12/18 11:30:56;;;;;;;27.00;15.60;;;1.40;99.90;;;;;;4964568;28;20030;-79
2021/12/18 11:33:22;;;;;;;24.73;13.93;;;1.60;99.90;;;;;;4964617;28;20039;-79
2021/12/18 11:35:48;;;;;;;22.57;13.60;;;1.90;99.90;;;;;;4964972;28;20069;-79
2021/12/18 11:38:15;;;;;;;24.17;15.17;;;1.80;99.90;;;;;;4964702;28;20042;-79
2021/12/18 11:40:42;;;;;;;25.30;14.27;;;1.90;99.90;;;;;;4964997;28;20091;-79
2021/12/18 11:43:35;;;;;;;23.57;13.27;;;2.00;99.90;;;;;;4964540;28;20519;-82
2021/12/18 11:46:02;;;;;;;20.67;12.27;;;2.20;99.90;;;;;;4965104;28;20033;-79
2021/12/18 11:48:52;;;;;;;27.67;14.43;;;2.20;99.90;;;;;;4964649;28;20022;-79
2021/12/18 11:51:17;;;;;;;24.27;13.87;;;2.30;99.90;;;;;;5031071;28;20031;-81
2021/12/18 11:53:43;;;;;;;25.47;14.70;;;2.10;99.90;;;;;;4964892;28;20061;-81
2021/12/18 11:56:08;;;;;;;23.30;13.07;;;2.30;99.90;;;;;;4964688;28;20027;-81
2021/12/18 11:58:42;;;;;;;27.57;14.23;;;2.10;99.90;;;;;;4964802;28;20117;-82
2021/12/18 12:01:24;;;;;;;24.90;14.23;;;2.00;99.90;;;;;;5031229;28;20110;-79
2021/12/18 12:03:50;;;;;;;26.00;13.93;;;1.90;99.90;;;;;;4964805;28;20026;-79
2021/12/18 12:06:18;;;;;;;22.43;13.83;;;2.00;99.90;;;;;;4964603;28;20026;-79
2021/12/18 12:08:45;;;;;;;22.97;13.33;;;2.00;99.90;;;;;;4964617;28;20033;-79
2021/12/18 12:11:27;;;;;;;24.53;14.00;;;2.00;99.90;;;;;;4957096;28;20026;-79
2021/12/18 12:13:56;;;;;;;25.40;14.47;;;1.80;99.90;;;;;;4964252;28;20034;-79
2021/12/18 12:16:47;;;;;;;26.43;14.00;;;1.70;99.90;;;;;;4927345;28;1067680;-79
2021/12/18 12:19:15;;;;;;;28.20;15.23;;;1.60;99.90;;;;;;4965255;28;20043;-79
2021/12/18 12:21:44;;;;;;;24.60;14.27;;;1.50;99.90;;;;;;4965101;28;20367;-79
2021/12/18 12:24:11;;;;;;;25.83;14.07;;;1.70;99.90;;;;;;5033997;28;20084;-79
2021/12/18 12:26:36;;;;;;;24.73;13.57;;;1.80;99.90;;;;;;4968475;28;20603;-79
2021/12/18 12:29:04;;;;;;;22.53;14.33;;;1.70;99.90;;;;;;4969993;28;20084;-79
2021/12/18 12:31:31;;;;;;;21.80;12.73;;;1.90;99.90;;;;;;4968602;28;20061;-79
2021/12/18 12:34:23;;;;;;;22.73;13.03;;;1.90;99.90;;;;;;5035314;28;20112;-79
2021/12/18 12:36:49;;;;;;;21.90;13.47;;;2.00;99.90;;;;;;4967881;28;20113;-79
2021/12/18 12:39:15;;;;;;;24.30;13.03;;;2.00;99.90;;;;;;4968379;28;20058;-79
2021/12/18 12:41:51;;;;;;;24.03;12.67;;;2.00;99.90;;;;;;4968208;28;20035;-79
2021/12/18 12:44:26;;;;;;;22.77;13.73;;;2.10;99.90;;;;;;4968083;28;20103;-79
2021/12/18 12:47:16;;;;;;;24.13;13.93;;;2.00;99.90;;;;;;4968076;28;20082;-79
2021/12/18 12:49:43;;;;;;;25.23;13.33;;;1.90;99.90;;;;;;4968289;28;20543;-79
2021/12/18 12:52:12;;;;;;;22.57;13.23;;;1.80;99.90;;;;;;5034814;28;20030;-79
2021/12/18 12:54:38;;;;;;;24.90;13.60;;;1.90;99.90;;;;;;4968507;28;20034;-79
2021/12/18 12:57:28;;;;;;;41.30;21.17;;;1.90;99.90;;;;;;4968007;28;20088;-79
2021/12/18 12:59:58;;;;;;;27.63;14.50;;;1.90;99.90;;;;;;4968387;28;20038;-79
2021/12/18 13:02:24;;;;;;;31.30;15.83;;;2.00;99.90;;;;;;4968002;28;20058;-79
2021/12/18 13:05:00;;;;;;;25.63;14.67;;;2.20;99.90;;;;;;5034595;28;20034;-78
2021/12/18 13:07:26;;;;;;;25.30;15.43;;;2.30;99.90;;;;;;5034618;28;20466;-79
2021/12/18 13:09:51;;;;;;;46.30;25.23;;;2.10;99.90;;;;;;4967744;28;20019;-79
2021/12/18 13:12:17;;;;;;;27.83;14.23;;;1.90;99.90;;;;;;4967650;28;20023;-78
2021/12/18 13:14:45;;;;;;;23.83;14.10;;;2.00;99.90;;;;;;4967500;28;20735;-79
2021/12/18 13:17:18;;;;;;;24.07;13.97;;;2.00;99.90;;;;;;4967460;28;20061;-79
2021/12/18 13:19:53;;;;;;;35.53;21.90;;;2.10;99.90;;;;;;4967749;28;20039;-79
2021/12/18 13:22:18;;;;;;;28.65;15.95;;;2.10;99.90;;;;;;4967544;28;20428;-79
2021/12/18 13:24:59;;;;;;;29.90;15.07;;;1.90;99.90;;;;;;4967422;28;20073;-79
2021/12/18 13:27:24;;;;;;;24.97;13.50;;;1.90;99.90;;;;;;4967543;28;20053;-78